Time;durP1;ratioP1;P1;durP2;ratioP2;P2;SDS_P1;SDS_P2;PMS_P1;PMS_P2;Temp;Humidity;BMP_temperature;BMP_pressure;BME280_temperature;BME280_humidity;BME280_pressure;Samples;Min_cycle;Max_cycle;Signal;HPM_P1;HPM_P2
2024/01/11 00:02:13;;;;;;;42.72;24.17;;;-3273.60;80.00;;;;;;5035965;28;20087;-80
2024/01/11 00:04:40;;;;;;;41.95;23.48;;;-3273.60;80.00;;;;;;5040082;28;20490;-80
2024/01/11 00:07:06;;;;;;;38.22;24.52;;;-3273.60;80.20;;;;;;5056186;28;20104;-76
2024/01/11 00:09:31;;;;;;;35.38;21.95;;;-3273.60;80.30;;;;;;5045800;28;20069;-80
2024/01/11 00:11:57;;;;;;;45.58;22.42;;;-3273.60;80.30;;;;;;5053928;28;20038;-80
2024/01/11 00:14:23;;;;;;;41.38;23.80;;;-3273.60;80.40;;;;;;5051494;28;20068;-78
2024/01/11 00:16:48;;;;;;;38.05;23.13;;;-3273.60;80.60;;;;;;5054190;28;20032;-81
2024/01/11 00:19:14;;;;;;;40.80;24.00;;;-3273.70;80.60;;;;;;5050213;28;20553;-75
2024/01/11 00:21:40;;;;;;;40.35;23.25;;;-3273.60;80.50;;;;;;5047699;28;20067;-79
2024/01/11 00:24:05;;;;;;;35.95;22.38;;;-3273.60;80.50;;;;;;5046859;28;20037;-76
2024/01/11 00:26:31;;;;;;;41.67;22.83;;;-3273.60;80.50;;;;;;5050572;28;20059;-78
2024/01/11 00:28:57;;;;;;;39.45;23.30;;;-3273.60;80.40;;;;;;5039841;28;20085;-77
2024/01/11 00:31:22;;;;;;;39.30;23.23;;;-3273.60;80.30;;;;;;5050335;28;20595;-77
2024/01/11 00:33:48;;;;;;;39.15;22.73;;;-3273.60;80.30;;;;;;5047395;28;20045;-79
2024/01/11 00:36:20;;;;;;;40.30;22.52;;;-3273.60;80.30;;;;;;5052790;28;20028;-78
2024/01/11 00:38:46;;;;;;;38.65;22.63;;;-3273.60;80.20;;;;;;5040609;28;20050;-80
2024/01/11 00:41:11;;;;;;;40.00;23.98;;;-3273.50;80.20;;;;;;5051330;28;20317;-77
2024/01/11 00:43:37;;;;;;;39.03;23.48;;;-3273.50;80.30;;;;;;5051453;28;20029;-77
2024/01/11 00:46:02;;;;;;;40.67;23.90;;;-3273.50;80.30;;;;;;5048651;28;20109;-80
2024/01/11 00:48:28;;;;;;;42.90;23.77;;;-3273.50;80.40;;;;;;5050719;28;20022;-79
2024/01/11 00:50:56;;;;;;;38.88;23.23;;;-3273.50;80.40;;;;;;5056643;28;20080;-78
2024/01/11 00:53:22;;;;;;;37.22;22.30;;;-3273.50;80.40;;;;;;5045869;28;20031;-77
2024/01/11 00:55:47;;;;;;;43.75;24.52;;;-3273.50;80.40;;;;;;5050716;28;20037;-78
2024/01/11 00:58:13;;;;;;;41.85;23.25;;;-3273.50;80.40;;;;;;5048306;28;20030;-82
2024/01/11 01:00:39;;;;;;;43.38;24.63;;;-3273.60;80.20;;;;;;5049872;28;20645;-78
2024/01/11 01:03:04;;;;;;;41.95;24.40;;;-3273.60;80.10;;;;;;5054445;28;20036;-76
2024/01/11 01:05:30;;;;;;;37.85;22.67;;;-3273.60;80.10;;;;;;5053794;28;20033;-76
2024/01/11 01:07:56;;;;;;;39.70;22.98;;;-3273.60;80.00;;;;;;5043977;28;20034;-80
2024/01/11 01:10:21;;;;;;;37.15;22.73;;;-3273.60;79.90;;;;;;5057004;28;20572;-79
2024/01/11 01:12:47;;;;;;;39.97;22.25;;;-3273.60;80.00;;;;;;5046629;28;20132;-78
2024/01/11 01:15:14;;;;;;;37.78;22.52;;;-3273.60;80.00;;;;;;5048817;28;20060;-81
2024/01/11 01:17:39;;;;;;;37.60;23.10;;;-3273.60;80.20;;;;;;5050597;28;20041;-79
2024/01/11 01:20:06;;;;;;;38.92;22.45;;;-3273.60;80.10;;;;;;5055063;28;20167;-77
2024/01/11 01:22:31;;;;;;;39.13;22.02;;;-3273.50;80.30;;;;;;5053178;28;20050;-81
2024/01/11 01:24:57;;;;;;;39.25;23.48;;;-3273.50;80.50;;;;;;5058346;28;20032;-76
2024/01/11 01:27:22;;;;;;;38.42;22.65;;;-3273.50;80.60;;;;;;5046933;28;20018;-78
2024/01/11 01:29:49;;;;;;;38.03;22.08;;;-3273.50;80.60;;;;;;5051720;28;20032;-76
2024/01/11 01:32:14;;;;;;;39.67;22.80;;;-3273.50;80.70;;;;;;5053924;28;20021;-76
2024/01/11 01:34:40;;;;;;;41.15;24.00;;;-3273.50;80.90;;;;;;5053069;28;20591;-81
2024/01/11 01:37:06;;;;;;;38.05;22.88;;;-3273.50;81.00;;;;;;5042970;28;20029;-77
2024/01/11 01:39:31;;;;;;;42.15;23.67;;;-3273.40;81.10;;;;;;5046672;28;20238;-79
2024/01/11 01:41:57;;;;;;;40.10;24.02;;;-3273.40;81.40;;;;;;5052705;28;20468;-79
2024/01/11 01:44:22;;;;;;;41.75;24.30;;;-3273.30;81.60;;;;;;5062567;28;20021;-79
2024/01/11 01:46:49;;;;;;;45.13;24.80;;;-3273.30;81.90;;;;;;5052364;28;20101;-81
2024/01/11 01:49:17;;;;;;;39.75;24.02;;;-3273.30;82.20;;;;;;5049680;28;20840;-79
2024/01/11 01:51:43;;;;;;;40.45;24.33;;;-3273.30;82.20;;;;;;5050449;28;20025;-76
2024/01/11 01:54:09;;;;;;;41.13;24.52;;;-3273.30;82.30;;;;;;5045659;28;20043;-81
2024/01/11 01:56:35;;;;;;;41.42;24.00;;;-3273.30;82.50;;;;;;5036603;28;20025;-79
2024/01/11 01:59:02;;;;;;;42.00;23.85;;;-3273.20;82.60;;;;;;5053754;28;20029;-76
2024/01/11 02:01:28;;;;;;;38.88;23.30;;;-3273.30;82.70;;;;;;5054929;28;20286;-80
2024/01/11 02:03:54;;;;;;;43.38;23.67;;;-3273.30;82.80;;;;;;5054045;28;20025;-78
2024/01/11 02:06:23;;;;;;;41.58;25.40;;;-3273.30;82.80;;;;;;5053107;28;20153;-78
2024/01/11 02:08:52;;;;;;;41.85;24.20;;;-3273.30;82.90;;;;;;5050289;28;20040;-76
2024/01/11 02:11:19;;;;;;;43.47;22.88;;;-3273.30;83.00;;;;;;5048695;28;20031;-76
2024/01/11 02:13:45;;;;;;;38.72;22.40;;;-3273.20;83.00;;;;;;5055792;28;20053;-78
2024/01/11 02:16:12;;;;;;;39.70;23.52;;;-3273.20;83.00;;;;;;5051547;28;20229;-81
2024/01/11 02:18:38;;;;;;;41.08;23.83;;;-3273.20;83.10;;;;;;5058397;28;20095;-76
2024/01/11 02:21:08;;;;;;;42.33;24.02;;;-3273.30;83.00;;;;;;5055999;28;20029;-76
2024/01/11 02:23:42;;;;;;;39.28;23.63;;;-3273.30;83.00;;;;;;5057157;28;20021;-78
2024/01/11 02:26:07;;;;;;;39.45;23.75;;;-3273.20;83.10;;;;;;5057709;28;20110;-79
2024/01/11 02:28:33;;;;;;;37.90;22.65;;;-3273.20;83.10;;;;;;5060878;28;20051;-76
2024/01/11 02:30:59;;;;;;;40.60;23.38;;;-3273.10;83.20;;;;;;5055074;28;20022;-75
2024/01/11 02:33:24;;;;;;;36.97;22.88;;;-3273.10;83.30;;;;;;5055156;28;20053;-79
2024/01/11 02:35:50;;;;;;;41.17;22.40;;;-3273.20;83.40;;;;;;5058080;28;20025;-78
2024/01/11 02:38:16;;;;;;;39.00;23.83;;;-3273.10;83.40;;;;;;5051139;28;20058;-80
2024/01/11 02:40:44;;;;;;;38.72;22.55;;;-3273.10;83.60;;;;;;5063495;28;20028;-77
2024/01/11 02:43:13;;;;;;;38.83;23.30;;;-3273.10;83.60;;;;;;5055918;28;20042;-77
2024/01/11 02:45:38;;;;;;;37.70;23.85;;;-3273.10;83.50;;;;;;5056928;28;20282;-77
2024/01/11 02:48:04;;;;;;;39.00;23.63;;;-3273.10;83.50;;;;;;5055286;28;20037;-76
2024/01/11 02:50:30;;;;;;;39.97;22.77;;;-3273.10;83.60;;;;;;5058011;28;20009;-78
2024/01/11 02:52:55;;;;;;;41.28;23.58;;;-3273.10;83.60;;;;;;5060252;28;20037;-76
2024/01/11 02:55:21;;;;;;;42.22;24.13;;;-3273.10;83.60;;;;;;5053357;28;20048;-76
2024/01/11 02:57:47;;;;;;;35.80;23.95;;;-3273.10;83.60;;;;;;5060919;28;20032;-78
2024/01/11 03:00:12;;;;;;;38.92;23.92;;;-3273.10;83.70;;;;;;5056358;28;20025;-78
2024/01/11 03:02:38;;;;;;;38.60;23.02;;;-3273.00;83.70;;;;;;5047728;28;20260;-81
2024/01/11 03:05:04;;;;;;;41.97;23.13;;;-3273.00;83.80;;;;;;5044385;28;20040;-78
2024/01/11 03:07:30;;;;;;;38.10;23.60;;;-3273.10;83.80;;;;;;5052393;28;20041;-78
2024/01/11 03:09:56;;;;;;;38.90;23.95;;;-3273.00;83.80;;;;;;5035550;28;20061;-82
2024/01/11 03:12:22;;;;;;;39.05;23.70;;;-3273.00;83.70;;;;;;5046966;28;20024;-79
2024/01/11 03:14:48;;;;;;;38.65;23.58;;;-3273.00;83.80;;;;;;5048565;28;20635;-80
2024/01/11 03:17:13;;;;;;;38.70;22.75;;;-3273.00;83.80;;;;;;5047554;28;20096;-79
2024/01/11 03:19:42;;;;;;;39.00;23.00;;;-3273.00;83.90;;;;;;5058804;28;20568;-77
2024/01/11 03:22:07;;;;;;;38.45;22.83;;;-3273.00;84.00;;;;;;5049256;28;20025;-78
2024/01/11 03:24:37;;;;;;;36.35;23.55;;;-3273.10;83.90;;;;;;5059365;28;20032;-79
2024/01/11 03:27:02;;;;;;;39.10;24.70;;;-3273.00;83.80;;;;;;5050368;28;20013;-79
2024/01/11 03:29:28;;;;;;;40.67;23.80;;;-3273.00;83.90;;;;;;5054497;28;20075;-77
2024/01/11 03:31:54;;;;;;;36.80;22.33;;;-3273.00;84.00;;;;;;5056567;28;20082;-83
2024/01/11 03:34:19;;;;;;;39.03;22.48;;;-3273.00;84.20;;;;;;5042165;28;20049;-79
2024/01/11 03:36:45;;;;;;;36.35;22.08;;;-3273.00;84.30;;;;;;5043012;28;20091;-79
2024/01/11 03:39:11;;;;;;;41.42;24.17;;;-3273.00;84.20;;;;;;5038150;28;20396;-84
2024/01/11 03:41:37;;;;;;;38.72;23.02;;;-3273.00;84.50;;;;;;5033628;28;20017;-79
2024/01/11 03:44:02;;;;;;;41.05;24.77;;;-3273.00;84.50;;;;;;5033598;28;20037;-81
2024/01/11 03:46:28;;;;;;;42.15;24.63;;;-3273.00;84.70;;;;;;5036945;28;20546;-79
2024/01/11 03:48:55;;;;;;;45.13;24.88;;;-3273.00;84.70;;;;;;5029479;28;20433;-84
2024/01/11 03:51:21;;;;;;;39.63;24.65;;;-3273.00;84.80;;;;;;5035895;28;20032;-84
2024/01/11 03:53:46;;;;;;;38.75;23.42;;;-3272.90;84.80;;;;;;5034869;28;20385;-81
2024/01/11 03:56:12;;;;;;;41.80;24.10;;;-3272.90;84.90;;;;;;5035000;28;20063;-81
2024/01/11 03:58:41;;;;;;;41.75;24.98;;;-3272.90;85.00;;;;;;5032432;28;20045;-84
2024/01/11 04:01:09;;;;;;;38.30;24.23;;;-3272.90;85.00;;;;;;5029706;28;20021;-82
2024/01/11 04:03:35;;;;;;;42.22;25.25;;;-3272.80;85.10;;;;;;5024811;28;20033;-79
2024/01/11 04:06:01;;;;;;;40.42;25.27;;;-3272.80;85.10;;;;;;5039507;28;20044;-80
2024/01/11 04:08:27;;;;;;;42.03;23.75;;;-3272.80;85.20;;;;;;5032048;28;20025;-81
2024/01/11 04:10:53;;;;;;;41.25;24.10;;;-3272.90;85.10;;;;;;5034986;28;20095;-84
2024/01/11 04:13:18;;;;;;;42.60;24.30;;;-3272.90;85.00;;;;;;5030981;28;20061;-80
2024/01/11 04:15:44;;;;;;;40.78;23.77;;;-3272.80;85.00;;;;;;5049181;28;20371;-82
2024/01/11 04:18:10;;;;;;;43.15;24.85;;;-3272.80;85.10;;;;;;5042106;28;20036;-82
2024/01/11 04:20:35;;;;;;;44.53;26.23;;;-3272.80;85.10;;;;;;5034425;28;20049;-82
2024/01/11 04:23:01;;;;;;;48.40;27.17;;;-3272.80;85.20;;;;;;5035615;28;20037;-84
2024/01/11 04:25:26;;;;;;;45.28;26.00;;;-3272.80;85.30;;;;;;5039339;28;20055;-85
2024/01/11 04:27:52;;;;;;;41.78;24.73;;;-3272.80;85.40;;;;;;5034982;28;20438;-79
2024/01/11 04:30:18;;;;;;;43.47;25.80;;;-3272.90;85.40;;;;;;5036089;28;20075;-85
2024/01/11 04:32:44;;;;;;;47.10;26.08;;;-3272.90;85.30;;;;;;5043924;28;20057;-81
2024/01/11 04:35:10;;;;;;;43.35;25.27;;;-3272.80;85.30;;;;;;5034250;28;20378;-85
2024/01/11 04:37:35;;;;;;;38.50;23.98;;;-3272.80;85.30;;;;;;5037401;28;20030;-86
2024/01/11 04:40:01;;;;;;;44.05;25.83;;;-3272.80;85.40;;;;;;5035675;28;21293;-81
2024/01/11 04:42:28;;;;;;;38.13;23.58;;;-3272.70;85.40;;;;;;5042915;28;20037;-85
2024/01/11 04:44:53;;;;;;;40.17;24.23;;;-3272.70;85.50;;;;;;5035139;28;20545;-78
2024/01/11 04:47:19;;;;;;;42.40;24.42;;;-3272.70;85.70;;;;;;5037524;28;20120;-84
2024/01/11 04:49:45;;;;;;;41.83;25.33;;;-3272.80;85.90;;;;;;5036558;28;20028;-84
2024/01/11 04:52:11;;;;;;;44.67;25.35;;;-3272.80;86.00;;;;;;5042715;28;20091;-79
2024/01/11 04:54:37;;;;;;;43.42;24.17;;;-3272.80;86.00;;;;;;5034021;28;20077;-83
2024/01/11 04:57:03;;;;;;;39.40;23.98;;;-3272.80;86.00;;;;;;5032576;28;20485;-83
2024/01/11 04:59:29;;;;;;;41.17;25.27;;;-3272.80;86.00;;;;;;5053127;28;20095;-82
2024/01/11 05:01:55;;;;;;;43.65;25.10;;;-3272.80;86.10;;;;;;5038869;28;20033;-84
2024/01/11 05:04:20;;;;;;;43.63;25.33;;;-3272.70;86.20;;;;;;5037407;28;20078;-82
2024/01/11 05:06:46;;;;;;;42.25;24.90;;;-3272.70;86.20;;;;;;5041675;28;20448;-85
2024/01/11 05:09:12;;;;;;;41.60;24.80;;;-3272.70;86.30;;;;;;5032973;28;21446;-80
2024/01/11 05:11:37;;;;;;;40.58;25.58;;;-3272.70;86.40;;;;;;5043691;28;20461;-76
2024/01/11 05:14:03;;;;;;;42.42;25.65;;;-3272.80;86.40;;;;;;5036853;28;20032;-85
2024/01/11 05:16:29;;;;;;;42.35;24.40;;;-3272.80;86.50;;;;;;5041103;28;20038;-82
2024/01/11 05:18:56;;;;;;;43.85;26.95;;;-3272.80;86.50;;;;;;5042346;28;20025;-79
2024/01/11 05:21:22;;;;;;;41.40;24.67;;;-3272.70;86.50;;;;;;5046269;28;20021;-78
2024/01/11 05:23:48;;;;;;;41.78;24.73;;;-3272.70;86.60;;;;;;5041825;28;20082;-81
2024/01/11 05:26:18;;;;;;;46.78;26.33;;;-3272.70;86.50;;;;;;5036796;28;20043;-86
2024/01/11 05:28:44;;;;;;;42.40;25.15;;;-3272.70;86.70;;;;;;5052091;28;20037;-77
2024/01/11 05:31:11;;;;;;;39.92;25.20;;;-3272.80;86.80;;;;;;5047074;28;20238;-82
2024/01/11 05:33:37;;;;;;;44.95;26.05;;;-3272.80;86.70;;;;;;5037096;28;20053;-82
2024/01/11 05:36:03;;;;;;;43.28;26.45;;;-3272.80;86.70;;;;;;5033648;28;20041;-83
2024/01/11 05:38:29;;;;;;;40.25;25.27;;;-3272.70;86.80;;;;;;5031248;28;20083;-79
2024/01/11 05:40:54;;;;;;;43.10;26.10;;;-3272.80;86.90;;;;;;5032800;28;20405;-82
2024/01/11 05:43:20;;;;;;;45.22;25.27;;;-3272.80;86.90;;;;;;5034082;28;20040;-82
2024/01/11 05:45:45;;;;;;;43.13;26.00;;;-3272.80;87.00;;;;;;5036686;28;20361;-82
2024/01/11 05:48:11;;;;;;;42.30;24.58;;;-3272.80;87.00;;;;;;5039864;28;20044;-85
2024/01/11 05:50:37;;;;;;;42.17;25.48;;;-3272.70;87.10;;;;;;5040135;28;20025;-78
2024/01/11 05:53:03;;;;;;;45.45;26.40;;;-3272.80;87.30;;;;;;5029435;28;20041;-80
2024/01/11 05:55:29;;;;;;;43.05;25.17;;;-3272.80;87.30;;;;;;5034852;28;20029;-77
2024/01/11 05:57:54;;;;;;;43.83;26.58;;;-3272.80;87.40;;;;;;5032705;28;20045;-79
2024/01/11 06:00:20;;;;;;;45.55;26.88;;;-3272.80;87.60;;;;;;5029520;28;20416;-79
2024/01/11 06:02:46;;;;;;;45.58;26.58;;;-3272.90;87.60;;;;;;5027156;28;20534;-82
2024/01/11 06:05:15;;;;;;;41.50;25.30;;;-3272.90;87.60;;;;;;5037045;28;20260;-79
2024/01/11 06:07:41;;;;;;;43.85;25.95;;;-3272.90;87.70;;;;;;5039650;28;20040;-82
2024/01/11 06:10:08;;;;;;;44.53;25.55;;;-3272.90;87.70;;;;;;5031762;28;20025;-78
2024/01/11 06:12:35;;;;;;;44.67;27.65;;;-3273.00;87.80;;;;;;5032836;28;20040;-83
2024/01/11 06:15:01;;;;;;;43.38;27.05;;;-3273.00;87.80;;;;;;5036308;28;20136;-81
2024/01/11 06:17:27;;;;;;;46.88;28.00;;;-3273.00;87.60;;;;;;5033622;28;20032;-78
2024/01/11 06:19:52;;;;;;;44.67;27.48;;;-3273.00;87.60;;;;;;5040182;28;20029;-78
2024/01/11 06:22:18;;;;;;;47.28;27.17;;;-3273.00;87.60;;;;;;5032903;28;20023;-82
2024/01/11 06:24:44;;;;;;;43.25;26.27;;;-3273.00;87.60;;;;;;5032665;28;20026;-78
2024/01/11 06:27:09;;;;;;;45.28;26.23;;;-3273.00;87.70;;;;;;5046497;28;20025;-81
2024/01/11 06:29:35;;;;;;;46.53;27.75;;;-3273.00;87.70;;;;;;5035146;28;20040;-79
2024/01/11 06:32:02;;;;;;;44.28;25.33;;;-3273.00;87.70;;;;;;5044556;28;20099;-81
2024/01/11 06:34:28;;;;;;;43.13;26.08;;;-3273.10;87.70;;;;;;5041805;28;20049;-81
2024/01/11 06:36:55;;;;;;;46.75;27.40;;;-3273.00;87.70;;;;;;5033446;28;20620;-78
2024/01/11 06:39:20;;;;;;;43.67;26.95;;;-3273.00;87.70;;;;;;5033253;28;20079;-82
2024/01/11 06:41:46;;;;;;;42.47;25.10;;;-3273.00;87.80;;;;;;5037485;28;20492;-81
2024/01/11 06:44:12;;;;;;;46.65;26.95;;;-3273.00;87.70;;;;;;5037436;28;20176;-77
2024/01/11 06:46:41;;;;;;;48.28;29.00;;;-3273.00;87.60;;;;;;5048902;28;20017;-77
2024/01/11 06:49:07;;;;;;;48.05;27.85;;;-3273.00;87.70;;;;;;5040806;28;20124;-79
2024/01/11 06:51:33;;;;;;;53.95;32.03;;;-3273.00;87.70;;;;;;5050658;28;20021;-76
2024/01/11 06:54:00;;;;;;;45.50;26.95;;;-3273.00;87.80;;;;;;5059144;28;20320;-77
2024/01/11 06:56:26;;;;;;;46.50;27.92;;;-3273.00;87.80;;;;;;5056419;28;20092;-77
2024/01/11 06:58:52;;;;;;;55.30;32.67;;;-3272.90;87.70;;;;;;5053217;28;20134;-77
2024/01/11 07:01:18;;;;;;;48.28;31.13;;;-3272.90;87.80;;;;;;5061529;28;20025;-77
2024/01/11 07:03:44;;;;;;;42.35;27.60;;;-3272.90;88.00;;;;;;5058348;28;20041;-77
2024/01/11 07:06:10;;;;;;;43.03;27.05;;;-3272.90;87.90;;;;;;5062137;28;20036;-77
2024/01/11 07:08:35;;;;;;;47.63;29.58;;;-3272.90;88.00;;;;;;5059463;28;20063;-77
2024/01/11 07:11:04;;;;;;;47.80;30.33;;;-3272.90;88.00;;;;;;5055700;28;20025;-75
2024/01/11 07:13:31;;;;;;;55.97;32.88;;;-3272.90;88.00;;;;;;5056496;28;20097;-77
2024/01/11 07:15:57;;;;;;;50.83;30.90;;;-3272.90;88.00;;;;;;5062783;28;20169;-77
2024/01/11 07:18:24;;;;;;;48.17;28.45;;;-3272.80;88.00;;;;;;5055696;28;20941;-77
2024/01/11 07:20:51;;;;;;;44.55;27.20;;;-3272.80;88.20;;;;;;5059742;28;20013;-75
2024/01/11 07:23:16;;;;;;;44.60;29.15;;;-3272.80;88.20;;;;;;5053279;28;20055;-83
2024/01/11 07:25:42;;;;;;;46.63;29.35;;;-3272.80;88.30;;;;;;5077807;28;20037;-84
2024/01/11 07:28:08;;;;;;;50.22;32.70;;;-3272.80;88.30;;;;;;5061672;28;20583;-76
2024/01/11 07:30:34;;;;;;;49.47;29.38;;;-3272.80;88.40;;;;;;5057952;28;20028;-76
2024/01/11 07:33:00;;;;;;;47.70;28.48;;;-3272.70;88.50;;;;;;5063079;28;20449;-76
2024/01/11 07:35:26;;;;;;;50.40;30.77;;;-3272.70;88.50;;;;;;5050992;28;20033;-80
2024/01/11 07:37:51;;;;;;;49.08;30.17;;;-3272.70;88.70;;;;;;5058908;28;20079;-79
2024/01/11 07:40:17;;;;;;;54.83;31.52;;;-3272.70;88.80;;;;;;5050277;28;20037;-75
2024/01/11 07:42:43;;;;;;;59.28;33.55;;;-3272.80;88.80;;;;;;5069909;28;20024;-75
2024/01/11 07:45:13;;;;;;;56.67;33.53;;;-3272.70;88.60;;;;;;5059747;28;20016;-79
2024/01/11 07:47:39;;;;;;;63.05;35.85;;;-3272.70;88.60;;;;;;5063512;28;20016;-75
2024/01/11 07:50:12;;;;;;;60.13;35.85;;;-3272.70;88.70;;;;;;5044892;28;20047;-83
2024/01/11 07:52:41;;;;;;;54.80;33.35;;;-3272.70;88.70;;;;;;5033173;28;20040;-79
2024/01/11 07:55:07;;;;;;;68.68;41.35;;;-3272.60;88.70;;;;;;5048889;28;20052;-75
2024/01/11 07:57:37;;;;;;;63.00;38.22;;;-3272.60;88.80;;;;;;5051745;28;20417;-77
2024/01/11 08:00:06;;;;;;;69.68;39.38;;;-3272.70;89.00;;;;;;5038532;28;20088;-73
2024/01/11 08:02:32;;;;;;;62.92;37.67;;;-3272.80;89.00;;;;;;5021271;28;20037;-74
2024/01/11 08:04:59;;;;;;;64.90;40.17;;;-3272.80;89.00;;;;;;5038250;28;20039;-73
2024/01/11 08:07:28;;;;;;;61.30;36.92;;;-3272.80;88.80;;;;;;5020791;28;20067;-74
2024/01/11 08:09:54;;;;;;;70.05;40.50;;;-3272.80;88.70;;;;;;5033636;28;20420;-73
2024/01/11 08:12:20;;;;;;;60.03;36.65;;;-3272.90;88.70;;;;;;5031605;28;20028;-73
2024/01/11 08:14:46;;;;;;;55.75;35.30;;;-3272.90;88.60;;;;;;5025779;28;20028;-73
2024/01/11 08:17:16;;;;;;;59.38;34.30;;;-3272.90;88.50;;;;;;5029194;28;20037;-73
2024/01/11 08:19:42;;;;;;;49.35;31.45;;;-3272.90;88.50;;;;;;5033950;28;20049;-73
2024/01/11 08:22:08;;;;;;;47.80;30.17;;;-3272.90;88.60;;;;;;5025164;28;20029;-73
2024/01/11 08:24:35;;;;;;;45.72;29.85;;;-3272.90;88.60;;;;;;5032293;28;20392;-73
2024/01/11 08:27:01;;;;;;;49.90;30.00;;;-3272.90;88.80;;;;;;5030440;28;20377;-73
2024/01/11 08:29:27;;;;;;;50.67;30.83;;;-3272.90;88.70;;;;;;5029869;28;20033;-73
2024/01/11 08:31:54;;;;;;;50.42;31.67;;;-3273.00;88.80;;;;;;5036062;28;20139;-74
2024/01/11 08:34:20;;;;;;;60.80;33.97;;;-3273.00;88.70;;;;;;5028283;28;20045;-73
2024/01/11 08:36:47;;;;;;;60.60;37.45;;;-3273.00;88.80;;;;;;5031906;28;20041;-74
2024/01/11 08:39:14;;;;;;;53.92;34.33;;;-3273.00;88.70;;;;;;5030187;28;20041;-73
2024/01/11 08:41:39;;;;;;;56.03;33.35;;;-3273.00;88.70;;;;;;5025847;28;20136;-74
2024/01/11 08:44:05;;;;;;;51.63;31.52;;;-3273.10;88.70;;;;;;5031427;28;20174;-73
2024/01/11 08:46:33;;;;;;;51.38;31.20;;;-3273.10;88.70;;;;;;5031499;28;20457;-74
2024/01/11 08:48:59;;;;;;;54.03;33.03;;;-3273.20;88.70;;;;;;5032841;28;20178;-73
2024/01/11 08:51:26;;;;;;;48.83;31.40;;;-3273.30;88.70;;;;;;5030409;28;20535;-73
2024/01/11 08:53:52;;;;;;;50.42;32.08;;;-3273.40;88.70;;;;;;5031582;28;20048;-74
2024/01/11 08:56:18;;;;;;;50.05;30.40;;;-3273.50;88.70;;;;;;5031070;28;20116;-73
2024/01/11 08:58:44;;;;;;;48.22;29.73;;;-3273.60;88.50;;;;;;5034224;28;20037;-73
2024/01/11 09:01:11;;;;;;;48.70;29.90;;;-3273.70;88.30;;;;;;5031622;28;20055;-74
2024/01/11 09:03:37;;;;;;;46.05;31.20;;;-3273.70;88.20;;;;;;5028970;28;20095;-74
2024/01/11 09:06:03;;;;;;;50.00;30.70;;;-3273.90;88.30;;;;;;5032521;28;20377;-73
2024/01/11 09:08:32;;;;;;;50.58;31.13;;;-3274.00;87.90;;;;;;5025621;28;20342;-74
2024/01/11 09:10:58;;;;;;;44.42;30.20;;;-3274.00;87.70;;;;;;5033503;28;20025;-74
2024/01/11 09:13:25;;;;;;;53.17;31.80;;;-3274.20;87.70;;;;;;5035837;28;20083;-73
2024/01/11 09:15:51;;;;;;;47.08;29.23;;;-3274.30;87.50;;;;;;5031872;28;20103;-73
2024/01/11 09:18:17;;;;;;;48.33;29.55;;;-3274.30;87.10;;;;;;5032902;28;20505;-74
2024/01/11 09:20:43;;;;;;;48.95;30.05;;;-3274.40;87.00;;;;;;5036909;28;20041;-74
2024/01/11 09:23:09;;;;;;;45.17;29.20;;;-3274.40;87.00;;;;;;5031280;28;20033;-74
2024/01/11 09:25:34;;;;;;;48.60;30.50;;;-3274.50;87.00;;;;;;5034480;28;20378;-74
2024/01/11 09:28:00;;;;;;;49.88;31.05;;;-3274.50;86.80;;;;;;5028223;28;20034;-74
2024/01/11 09:30:26;;;;;;;49.83;28.25;;;-3274.70;86.70;;;;;;5033826;28;20048;-74
2024/01/11 09:32:52;;;;;;;48.60;30.63;;;-3274.80;86.40;;;;;;5032651;28;20292;-75
2024/01/11 09:35:18;;;;;;;49.55;28.70;;;-3274.80;85.60;;;;;;5036793;28;20022;-74
2024/01/11 09:37:46;;;;;;;48.70;29.48;;;-3274.90;85.50;;;;;;5032810;28;20040;-74
2024/01/11 09:40:11;;;;;;;48.15;29.05;;;-3275.00;85.50;;;;;;5033947;28;20039;-73
2024/01/11 09:42:38;;;;;;;50.80;28.58;;;-3275.20;84.90;;;;;;5028508;28;20026;-76
2024/01/11 09:45:15;;;;;;;47.72;28.98;;;-3275.30;84.20;;;;;;5031497;28;20072;-74
2024/01/11 09:47:42;;;;;;;46.47;28.27;;;-3275.30;83.80;;;;;;5032733;28;20041;-75
2024/01/11 09:50:08;;;;;;;44.58;28.88;;;-3275.30;83.80;;;;;;5032939;28;20022;-74
2024/01/11 09:52:34;;;;;;;44.45;28.05;;;-3275.40;83.50;;;;;;5029645;28;20113;-75
2024/01/11 09:55:00;;;;;;;43.45;25.10;;;-3275.40;82.70;;;;;;5033774;28;20029;-75
2024/01/11 09:57:34;;;;;;;45.25;28.33;;;-3275.40;82.70;;;;;;5030757;28;20067;-75
2024/01/11 10:00:07;;;;;;;48.10;31.13;;;-3275.40;83.20;;;;;;5033355;28;20424;-75
2024/01/11 10:02:33;;;;;;;45.65;28.50;;;-3275.60;83.30;;;;;;5030775;28;20029;-74
2024/01/11 10:04:59;;;;;;;44.83;28.23;;;-3275.70;83.10;;;;;;5034709;28;20517;-75
2024/01/11 10:07:24;;;;;;;49.47;28.85;;;-3275.70;82.70;;;;;;5031060;28;20421;-75
2024/01/11 10:09:51;;;;;;;40.55;26.65;;;-3275.70;82.80;;;;;;5028489;28;20075;-74
2024/01/11 10:12:23;;;;;;;46.42;29.05;;;-3275.80;82.60;;;;;;5033489;28;20393;-75
2024/01/11 10:14:49;;;;;;;47.30;29.42;;;-3275.90;82.80;;;;;;5031581;28;20029;-75
2024/01/11 10:17:14;;;;;;;43.85;29.30;;;-3275.90;82.40;;;;;;5029454;28;20035;-75
2024/01/11 10:19:40;;;;;;;48.85;28.75;;;-3276.00;82.50;;;;;;5025757;28;20025;-76
2024/01/11 10:22:06;;;;;;;45.75;28.38;;;-3276.00;82.30;;;;;;5024309;28;20496;-76
2024/01/11 10:24:32;;;;;;;45.22;29.70;;;-3276.00;82.40;;;;;;5030423;28;20152;-75
2024/01/11 10:27:03;;;;;;;46.60;29.45;;;-3276.00;82.50;;;;;;5030901;28;20022;-75
2024/01/11 10:29:33;;;;;;;48.90;28.58;;;-3276.20;82.50;;;;;;5033087;28;20082;-76
2024/01/11 10:31:59;;;;;;;42.45;27.95;;;-3276.30;81.70;;;;;;5031917;28;20029;-75
2024/01/11 10:34:25;;;;;;;46.17;28.90;;;-3276.30;81.50;;;;;;5031554;28;20622;-76
2024/01/11 10:36:51;;;;;;;44.97;28.13;;;-3276.20;81.50;;;;;;5025909;28;20090;-74
2024/01/11 10:39:17;;;;;;;47.38;29.95;;;-3276.30;81.90;;;;;;5029087;28;20392;-74
2024/01/11 10:41:50;;;;;;;48.05;29.33;;;-3276.60;82.10;;;;;;5041923;28;20029;-74
2024/01/11 10:44:24;;;;;;;49.28;30.20;;;-3276.60;81.70;;;;;;5030697;28;20424;-75
2024/01/11 10:46:51;;;;;;;43.63;28.23;;;-3276.50;81.60;;;;;;5035667;28;20027;-74
2024/01/11 10:49:19;;;;;;;48.78;29.95;;;-3276.60;81.50;;;;;;5035003;28;20377;-74
2024/01/11 10:52:04;;;;;;;45.50;30.20;;;-3276.70;81.30;;;;;;5035952;28;20124;-73
2024/01/11 10:54:31;;;;;;;46.58;30.08;;;0.00;80.90;;;;;;5025414;28;20041;-74
2024/01/11 10:57:00;;;;;;;44.63;28.83;;;0.00;80.40;;;;;;5033585;28;20020;-75
2024/01/11 10:59:27;;;;;;;47.33;28.52;;;0.20;80.40;;;;;;5029647;28;20040;-73
2024/01/11 11:01:58;;;;;;;45.97;28.67;;;0.10;79.90;;;;;;5036786;28;20175;-74
2024/01/11 11:04:25;;;;;;;41.95;28.38;;;0.00;79.30;;;;;;5033371;28;20571;-73
2024/01/11 11:06:57;;;;;;;43.97;29.05;;;0.00;79.80;;;;;;5028397;28;20041;-73
2024/01/11 11:09:25;;;;;;;41.72;28.10;;;0.00;79.80;;;;;;5027397;28;20021;-73
2024/01/11 11:11:56;;;;;;;42.58;28.00;;;0.20;79.30;;;;;;5030043;28;20072;-74
2024/01/11 11:14:22;;;;;;;45.60;29.95;;;0.20;79.30;;;;;;5035045;28;20025;-73
2024/01/11 11:16:48;;;;;;;42.60;27.75;;;0.30;79.10;;;;;;5027170;28;20379;-74
2024/01/11 11:19:15;;;;;;;44.20;28.45;;;0.40;79.00;;;;;;5029350;28;20065;-74
2024/01/11 11:21:44;;;;;;;48.50;29.45;;;0.50;79.10;;;;;;5031440;28;20373;-74
2024/01/11 11:24:13;;;;;;;49.75;31.83;;;0.60;78.60;;;;;;5027586;28;20025;-74
2024/01/11 11:26:40;;;;;;;50.22;30.35;;;0.70;78.30;;;;;;5029078;28;20049;-74
2024/01/11 11:29:06;;;;;;;45.90;28.90;;;0.60;78.30;;;;;;5026027;28;20045;-74
2024/01/11 11:31:41;;;;;;;44.05;28.55;;;0.70;78.10;;;;;;5027770;28;20020;-74
2024/01/11 11:34:06;;;;;;;43.72;29.30;;;0.80;78.10;;;;;;5024421;28;20068;-74
2024/01/11 11:36:33;;;;;;;40.53;26.98;;;1.00;77.50;;;;;;5035236;28;20584;-74
2024/01/11 11:39:01;;;;;;;48.28;29.13;;;1.00;76.90;;;;;;5028357;28;20039;-73
2024/01/11 11:41:27;;;;;;;42.83;26.75;;;1.10;77.10;;;;;;5029945;28;20408;-74
2024/01/11 11:43:53;;;;;;;43.88;28.60;;;1.10;76.90;;;;;;5032233;28;20110;-73
2024/01/11 11:46:19;;;;;;;41.15;26.80;;;1.30;76.70;;;;;;5031822;28;20025;-74
2024/01/11 11:48:51;;;;;;;40.28;26.52;;;1.20;75.40;;;;;;5031674;28;20041;-73
2024/01/11 11:51:20;;;;;;;43.03;28.10;;;1.20;75.40;;;;;;5033260;28;20037;-74
2024/01/11 11:53:48;;;;;;;44.08;27.83;;;1.20;75.50;;;;;;5028804;28;20087;-74
2024/01/11 11:56:16;;;;;;;42.10;29.42;;;1.40;75.40;;;;;;5032009;28;20033;-74
2024/01/11 11:58:43;;;;;;;37.00;24.77;;;1.40;74.70;;;;;;5029126;28;20092;-74
2024/01/11 12:01:10;;;;;;;48.22;24.58;;;1.40;74.70;;;;;;5029643;28;20017;-73